Portada
METAR-TAF:

METAR-TAF

Aeroports :

McKinley Park, Alaska, Estats Units d'Amèrica

latitud: 63-44N, longitud: 148-55W, altitud: 524 m

Observació

L'informe es va fer fa 30 minuts, a les 06:56 UTC
Vent calma
Temperatura -27°C
Humitat 83%
Pressió 1008 hPa
Visibilitat: 16.1 km
Cel clar

METAR: PAIN 280656Z AUTO 00000KT 10SM CLR M27/M29 A2976 RMK AO2 SLP155 T12721294 FZRANO

Hora: 22:26 (07:26 UTC)


TAF: manca

Observacions i pronòstics meteorològics de més de 4000 aeroports (METAR i TAF).

Les estacions disponibles són els punts grocs i vermells al mapa.

Posi el ratolí al punt desitjat per veure el nom de l'estació.

Feu clic per veure les observacions i els pronòstics meteorològics.

Per canviar el mapa: feu clic els botons verds amb una creu de color negre per apropar; al botó verd amb un guió per allunyar la imatge; o en les fletxes verdes per a mapes adjacents.


METAR-TAF: